Time;durP1;ratioP1;P1;durP2;ratioP2;P2;SDS_P1;SDS_P2;PMS_P1;PMS_P2;Temp;Humidity;BMP_temperature;BMP_pressure;BME280_temperature;BME280_humidity;BME280_pressure;Samples;Min_cycle;Max_cycle;Signal;HPM_P1;HPM_P2
2021/04/01 00:00:38;;;;;;;12.68;8.20;;;8.90;45.20;;;;;;4980266;28;20038;-90
2021/04/01 00:03:05;;;;;;;15.40;8.05;;;8.90;45.30;;;;;;4980293;28;20039;-90
2021/04/01 00:05:31;;;;;;;15.38;8.75;;;8.90;45.30;;;;;;4979159;28;20039;-90
2021/04/01 00:07:58;;;;;;;15.05;8.75;;;8.90;45.30;;;;;;4978896;28;20049;-90
2021/04/01 00:10:30;;;;;;;15.52;7.90;;;8.90;45.40;;;;;;4978333;28;20038;-90
2021/04/01 00:12:57;;;;;;;12.30;7.57;;;8.80;45.40;;;;;;4978492;28;20042;-90
2021/04/01 00:15:22;;;;;;;14.18;8.32;;;8.80;45.50;;;;;;4996625;28;20521;-90
2021/04/01 00:17:48;;;;;;;10.15;6.93;;;8.80;45.70;;;;;;4978374;28;20075;-90
2021/04/01 00:20:15;;;;;;;11.20;7.95;;;8.80;45.60;;;;;;4978324;28;20058;-90
2021/04/01 00:22:42;;;;;;;10.43;7.40;;;8.80;45.70;;;;;;4978793;28;20117;-90
2021/04/01 00:25:10;;;;;;;12.15;7.97;;;8.80;45.70;;;;;;4978168;28;20035;-90
2021/04/01 00:27:36;;;;;;;11.55;6.50;;;8.80;45.70;;;;;;4980890;28;20063;-90
2021/04/01 00:30:04;;;;;;;11.63;6.97;;;8.80;45.70;;;;;;4978261;28;20039;-90
2021/04/01 00:32:29;;;;;;;7.93;6.15;;;8.80;45.70;;;;;;4979563;28;20050;-90
2021/04/01 00:34:55;;;;;;;12.13;7.03;;;8.80;45.70;;;;;;4978645;28;20039;-90
2021/04/01 00:37:21;;;;;;;9.32;7.15;;;8.80;45.70;;;;;;4979370;28;20043;-91
2021/04/01 00:39:47;;;;;;;9.02;6.90;;;8.80;45.70;;;;;;4978725;28;20394;-90
2021/04/01 00:42:13;;;;;;;8.68;6.00;;;8.80;45.70;;;;;;4978350;28;20069;-90
2021/04/01 00:44:39;;;;;;;10.75;6.60;;;8.80;45.70;;;;;;4978942;28;20098;-90
2021/04/01 00:47:07;;;;;;;13.85;7.18;;;8.80;45.70;;;;;;4978744;28;20035;-90
2021/04/01 00:49:35;;;;;;;12.20;7.65;;;8.80;45.60;;;;;;4979075;28;20098;-90
2021/04/01 00:52:00;;;;;;;11.82;7.72;;;8.80;45.60;;;;;;4978344;28;20101;-90
2021/04/01 00:54:27;;;;;;;12.18;7.22;;;8.80;45.60;;;;;;4977879;28;20034;-90
2021/04/01 00:56:53;;;;;;;10.23;7.32;;;8.80;45.60;;;;;;4980091;28;20121;-90
2021/04/01 00:59:19;;;;;;;12.75;7.75;;;8.80;45.60;;;;;;4983175;28;20054;-90
2021/04/01 01:01:52;;;;;;;11.80;7.35;;;8.80;45.60;;;;;;4989393;28;20031;-90
2021/04/01 01:04:18;;;;;;;11.30;7.45;;;8.80;45.60;;;;;;4987006;28;20105;-90
2021/04/01 01:06:45;;;;;;;14.63;8.63;;;8.80;45.60;;;;;;4990377;28;20413;-90
2021/04/01 01:09:11;;;;;;;11.68;7.55;;;8.80;45.60;;;;;;4985083;28;20042;-90
2021/04/01 01:11:38;;;;;;;17.40;9.75;;;8.80;45.70;;;;;;4981709;28;20034;-90
2021/04/01 01:14:06;;;;;;;14.15;9.73;;;8.70;45.70;;;;;;4981827;28;20077;-90
2021/04/01 01:16:32;;;;;;;16.60;9.80;;;8.70;45.80;;;;;;4981945;28;20057;-90
2021/04/01 01:18:58;;;;;;;14.90;10.68;;;8.60;45.80;;;;;;4986934;28;20038;-90
2021/04/01 01:21:24;;;;;;;13.75;8.90;;;8.60;46.00;;;;;;4988352;28;20066;-90
2021/04/01 01:23:51;;;;;;;13.60;8.27;;;8.50;46.00;;;;;;4985508;28;20469;-90
2021/04/01 01:26:18;;;;;;;14.95;8.35;;;8.50;46.20;;;;;;4996028;28;20032;-91
2021/04/01 01:28:46;;;;;;;14.27;9.45;;;8.40;46.40;;;;;;4997306;28;20102;-90
2021/04/01 01:31:13;;;;;;;19.05;13.65;;;8.40;46.50;;;;;;4993671;28;20062;-90
2021/04/01 01:33:43;;;;;;;19.60;12.32;;;8.40;46.80;;;;;;4990736;28;20110;-89
2021/04/01 01:36:10;;;;;;;18.67;13.48;;;8.30;46.70;;;;;;4989561;28;20058;-90
2021/04/01 01:38:36;;;;;;;18.13;12.43;;;8.30;46.90;;;;;;4989483;28;20082;-90
2021/04/01 01:41:03;;;;;;;19.10;12.35;;;8.30;47.00;;;;;;4988279;28;20046;-90
2021/04/01 01:43:29;;;;;;;17.55;10.30;;;8.30;47.10;;;;;;5000666;28;20038;-90
2021/04/01 01:45:55;;;;;;;15.27;8.70;;;8.20;47.10;;;;;;4982068;28;20038;-90
2021/04/01 01:48:21;;;;;;;12.50;8.20;;;8.20;47.20;;;;;;4982905;28;20045;-90
2021/04/01 01:50:47;;;;;;;14.90;9.45;;;8.30;47.30;;;;;;4981346;28;20038;-90
2021/04/01 01:53:13;;;;;;;11.48;7.95;;;8.20;47.40;;;;;;4981374;28;20141;-90
2021/04/01 01:55:39;;;;;;;13.45;8.90;;;8.20;47.50;;;;;;4983198;28;20053;-90
2021/04/01 01:58:06;;;;;;;13.30;8.75;;;8.20;47.50;;;;;;4984290;28;20034;-90
2021/04/01 02:00:34;;;;;;;9.30;7.20;;;8.20;47.60;;;;;;4981150;28;20097;-90
2021/04/01 02:03:04;;;;;;;11.45;8.13;;;8.20;47.70;;;;;;4981472;28;20038;-90
2021/04/01 02:05:31;;;;;;;13.63;8.15;;;8.10;47.60;;;;;;4982606;28;20030;-90
2021/04/01 02:07:58;;;;;;;13.15;8.70;;;8.10;47.70;;;;;;4988554;28;20034;-90
2021/04/01 02:10:32;;;;;;;15.90;8.00;;;8.00;47.90;;;;;;4990193;28;20038;-90
2021/04/01 02:12:59;;;;;;;10.85;7.30;;;8.00;48.00;;;;;;4988391;28;20038;-90
2021/04/01 02:15:35;;;;;;;11.10;7.20;;;7.90;48.10;;;;;;4989636;28;20034;-90
2021/04/01 02:18:06;;;;;;;11.65;6.95;;;7.90;48.10;;;;;;4987854;28;20046;-89
2021/04/01 02:20:39;;;;;;;11.93;7.85;;;7.80;48.30;;;;;;4981854;28;20041;-90
2021/04/01 02:23:05;;;;;;;10.43;7.35;;;7.70;48.30;;;;;;4986998;28;20100;-91
2021/04/01 02:25:31;;;;;;;11.07;7.32;;;7.70;48.40;;;;;;4988352;28;20429;-89
2021/04/01 02:27:57;;;;;;;12.27;6.95;;;7.70;48.60;;;;;;4992724;28;20046;-90
2021/04/01 02:30:23;;;;;;;11.25;6.93;;;7.60;48.70;;;;;;4990720;28;20034;-90
2021/04/01 02:32:49;;;;;;;9.15;6.38;;;7.60;49.00;;;;;;4981790;28;20042;-90
2021/04/01 02:35:15;;;;;;;10.98;7.18;;;7.60;49.10;;;;;;4997458;28;20082;-90
2021/04/01 02:37:41;;;;;;;10.50;7.18;;;7.50;49.10;;;;;;4986395;28;20043;-90
2021/04/01 02:40:07;;;;;;;13.13;7.32;;;7.50;49.20;;;;;;4982097;28;20045;-90
2021/04/01 02:42:33;;;;;;;19.08;8.15;;;7.50;49.50;;;;;;4979317;28;20042;-90
2021/04/01 02:44:59;;;;;;;9.20;7.43;;;7.40;49.50;;;;;;4979494;28;20034;-88
2021/04/01 02:47:24;;;;;;;11.55;7.43;;;7.40;49.60;;;;;;4981299;28;20501;-90
2021/04/01 02:49:50;;;;;;;12.82;7.55;;;7.40;49.70;;;;;;4980245;28;20031;-90
2021/04/01 02:52:16;;;;;;;13.40;8.05;;;7.40;49.70;;;;;;4980763;28;20434;-90
2021/04/01 02:54:42;;;;;;;13.40;8.93;;;7.40;49.80;;;;;;4979166;28;20045;-90
2021/04/01 02:57:18;;;;;;;13.68;7.68;;;7.30;49.90;;;;;;4985039;28;20060;-89
2021/04/01 02:59:45;;;;;;;14.52;7.78;;;7.30;49.90;;;;;;4994577;28;20038;-90
2021/04/01 03:02:12;;;;;;;13.60;8.60;;;7.30;50.00;;;;;;4991442;28;20034;-90
2021/04/01 03:04:38;;;;;;;12.65;8.35;;;7.30;50.20;;;;;;4993459;28;20497;-90
2021/04/01 03:07:04;;;;;;;13.93;8.73;;;7.20;50.20;;;;;;4995321;28;20034;-89
2021/04/01 03:09:31;;;;;;;14.32;8.20;;;7.20;50.30;;;;;;5002165;28;20027;-89
2021/04/01 03:11:57;;;;;;;10.95;7.97;;;7.20;50.50;;;;;;5000820;28;20034;-91
2021/04/01 03:14:22;;;;;;;11.50;7.05;;;7.10;50.60;;;;;;4999401;28;20022;-90
2021/04/01 03:16:48;;;;;;;12.43;8.07;;;7.10;50.70;;;;;;4990729;28;20042;-90
2021/04/01 03:19:14;;;;;;;13.70;7.90;;;7.10;50.80;;;;;;4986040;28;20042;-90
2021/04/01 03:21:41;;;;;;;14.55;7.22;;;7.10;50.90;;;;;;4987305;28;20049;-90
2021/04/01 03:24:07;;;;;;;17.08;7.32;;;7.00;51.10;;;;;;4984004;28;20038;-90
2021/04/01 03:26:33;;;;;;;16.25;7.82;;;7.00;51.20;;;;;;4978794;28;20035;-90
2021/04/01 03:28:58;;;;;;;11.15;8.00;;;7.00;51.20;;;;;;4979078;28;20492;-90
2021/04/01 03:31:24;;;;;;;13.45;8.32;;;6.90;51.30;;;;;;4979625;28;20049;-90
2021/04/01 03:33:50;;;;;;;17.50;7.95;;;7.00;51.40;;;;;;4979427;28;20046;-90
2021/04/01 03:36:16;;;;;;;15.95;8.43;;;6.90;51.50;;;;;;4979248;28;20036;-90
2021/04/01 03:38:45;;;;;;;12.13;7.93;;;6.90;51.50;;;;;;4983428;28;20046;-89
2021/04/01 03:41:11;;;;;;;14.95;7.93;;;6.90;51.70;;;;;;4978670;28;20054;-90
2021/04/01 03:43:37;;;;;;;15.77;8.38;;;6.90;51.80;;;;;;4979064;28;20038;-89
2021/04/01 03:46:03;;;;;;;14.38;7.88;;;6.90;51.90;;;;;;4978250;28;20038;-90
2021/04/01 03:48:29;;;;;;;14.07;8.45;;;6.90;51.80;;;;;;4982303;28;20126;-90
2021/04/01 03:50:54;;;;;;;19.48;8.35;;;6.90;51.90;;;;;;4985620;28;20077;-89
2021/04/01 03:53:20;;;;;;;14.27;9.10;;;6.90;52.20;;;;;;4984369;28;20050;-89
2021/04/01 03:55:47;;;;;;;17.25;10.75;;;6.90;52.10;;;;;;4983247;28;20102;-90
2021/04/01 04:06:01;;;;;;;18.13;11.68;;;7.00;52.40;;;;;;4998044;28;20034;-90
2021/04/01 04:11:12;;;;;;;20.25;10.60;;;7.00;52.60;;;;;;4998803;28;20492;-90
2021/04/01 04:16:04;;;;;;;20.15;10.85;;;7.00;52.80;;;;;;4995795;28;20065;-90
2021/04/01 04:18:29;;;;;;;18.20;10.35;;;7.10;52.90;;;;;;4978487;28;20061;-89
2021/04/01 04:20:55;;;;;;;20.70;9.95;;;7.10;52.80;;;;;;4978156;28;20030;-90
2021/04/01 04:23:22;;;;;;;17.95;10.00;;;7.20;53.10;;;;;;4978354;28;20050;-90
2021/04/01 04:25:48;;;;;;;18.67;10.82;;;7.30;52.90;;;;;;4978483;28;20035;-89
2021/04/01 04:31:06;;;;;;;13.80;9.48;;;7.40;52.90;;;;;;4986156;28;20169;-91
2021/04/01 04:33:32;;;;;;;14.68;9.45;;;7.40;52.80;;;;;;4982011;28;20154;-91
2021/04/01 04:35:58;;;;;;;12.13;8.50;;;7.50;52.80;;;;;;4982643;28;20045;-90
2021/04/01 04:38:25;;;;;;;17.35;9.82;;;7.60;52.80;;;;;;4989153;28;20042;-89
2021/04/01 04:40:55;;;;;;;12.80;8.88;;;7.70;52.80;;;;;;5012940;28;20038;-91
2021/04/01 04:43:20;;;;;;;11.27;9.05;;;7.80;52.70;;;;;;5000608;28;20057;-90
2021/04/01 04:45:46;;;;;;;19.25;10.40;;;7.80;52.70;;;;;;5003204;28;20042;-90
2021/04/01 04:48:12;;;;;;;13.98;9.00;;;7.90;52.70;;;;;;5003948;28;20062;-90
2021/04/01 04:50:38;;;;;;;17.23;10.43;;;8.00;52.70;;;;;;5002885;28;20071;-91
2021/04/01 04:53:04;;;;;;;15.15;9.82;;;8.10;52.70;;;;;;4999090;28;20046;-89
2021/04/01 04:55:34;;;;;;;16.50;10.20;;;8.10;52.50;;;;;;4995560;28;20110;-88
2021/04/01 05:01:01;;;;;;;13.85;8.73;;;8.30;52.60;;;;;;5003144;28;20051;-91
2021/04/01 05:06:15;;;;;;;16.48;9.43;;;8.50;52.40;;;;;;4998863;28;20050;-89
2021/04/01 05:08:41;;;;;;;13.00;8.88;;;8.60;52.30;;;;;;4980281;28;20030;-89
2021/04/01 05:11:07;;;;;;;22.63;9.38;;;8.80;52.30;;;;;;4981946;28;20401;-89
2021/04/01 05:13:32;;;;;;;15.02;10.98;;;8.90;52.20;;;;;;4981612;28;20042;-89
2021/04/01 05:15:58;;;;;;;17.95;10.70;;;9.00;52.10;;;;;;4980810;28;20569;-90
2021/04/01 05:18:30;;;;;;;15.45;10.88;;;9.10;52.00;;;;;;4980277;28;20105;-90
2021/04/01 05:20:58;;;;;;;12.63;9.88;;;9.20;51.80;;;;;;4981351;28;20042;-90
2021/04/01 05:25:52;;;;;;;18.13;11.23;;;9.40;51.80;;;;;;4998015;28;20541;-90
2021/04/01 05:28:30;;;;;;;16.17;10.82;;;9.50;51.80;;;;;;4981419;28;20061;-90
2021/04/01 05:30:56;;;;;;;15.00;10.73;;;9.60;51.70;;;;;;4981507;28;20034;-90
2021/04/01 05:33:23;;;;;;;20.73;10.88;;;9.70;51.60;;;;;;4979897;28;20046;-90
2021/04/01 05:35:49;;;;;;;15.27;11.15;;;9.80;51.60;;;;;;4979590;28;20124;-90
2021/04/01 05:38:14;;;;;;;21.02;12.73;;;9.90;51.50;;;;;;4979548;28;20066;-90
2021/04/01 05:40:40;;;;;;;16.17;10.60;;;10.00;51.30;;;;;;4979933;28;20030;-90
2021/04/01 05:43:11;;;;;;;20.48;13.35;;;10.20;51.20;;;;;;4979606;28;20038;-90
2021/04/01 05:45:46;;;;;;;15.52;11.23;;;10.20;51.10;;;;;;4980856;28;20113;-90
2021/04/01 05:48:19;;;;;;;15.18;11.80;;;10.30;51.00;;;;;;4980885;28;20042;-90
2021/04/01 05:51:00;;;;;;;19.70;14.05;;;10.40;50.80;;;;;;4981764;28;20448;-91
2021/04/01 05:55:03;;;;;;;16.75;11.70;;;10.40;50.70;;;;;;4980881;28;20125;-90
2021/04/01 06:01:59;;;;;;;18.63;11.38;;;10.70;50.80;;;;;;4998001;28;20039;-90
2021/04/01 06:04:37;;;;;;;19.33;11.75;;;10.80;50.70;;;;;;4980955;28;20038;-90
2021/04/01 06:07:15;;;;;;;14.93;10.63;;;11.00;50.60;;;;;;4979319;28;20034;-91
2021/04/01 06:09:58;;;;;;;14.40;10.25;;;11.20;50.40;;;;;;4995091;28;20034;-90
2021/04/01 06:12:32;;;;;;;15.18;11.35;;;11.40;50.20;;;;;;4979755;28;20397;-90
2021/04/01 06:15:07;;;;;;;14.90;10.65;;;11.60;49.90;;;;;;4978871;28;20045;-90
2021/04/01 06:17:35;;;;;;;18.33;12.38;;;11.70;49.70;;;;;;4979173;28;20141;-91
2021/04/01 06:20:06;;;;;;;18.77;12.82;;;11.80;49.40;;;;;;4979345;28;20038;-91
2021/04/01 06:22:33;;;;;;;17.70;13.18;;;11.80;49.30;;;;;;4980266;28;20046;-90
2021/04/01 06:24:59;;;;;;;21.33;13.98;;;11.90;49.20;;;;;;4982543;28;20085;-89
2021/04/01 06:27:52;;;;;;;19.48;13.43;;;11.90;49.10;;;;;;4994916;28;20039;-90
2021/04/01 06:30:30;;;;;;;20.08;14.43;;;12.00;49.00;;;;;;4998811;28;20082;-90
2021/04/01 06:33:13;;;;;;;20.73;13.80;;;12.00;49.10;;;;;;5000040;28;20026;-90
2021/04/01 06:35:57;;;;;;;20.95;12.93;;;12.00;49.10;;;;;;5016915;28;20053;-90
2021/04/01 06:38:29;;;;;;;15.85;10.95;;;12.10;49.20;;;;;;4995255;28;20034;-90
2021/04/01 06:40:58;;;;;;;20.92;12.98;;;12.20;49.20;;;;;;4986386;28;20079;-90
2021/04/01 06:43:40;;;;;;;;;;;;;;;;;;;;;
2021/04/01 06:46:08;;;;;;;18.50;12.40;;;12.60;49.00;;;;;;5005315;28;20085;-90
2021/04/01 06:54:12;;;;;;;17.15;12.73;;;13.00;48.10;;;;;;4998671;28;20045;-91
2021/04/01 07:02:43;;;;;;;15.00;12.57;;;13.20;47.80;;;;;;4984743;28;20042;-91
2021/04/01 07:05:20;;;;;;;19.02;11.65;;;13.20;47.80;;;;;;4978847;28;20523;-91
2021/04/01 07:07:59;;;;;;;13.77;9.93;;;13.30;47.80;;;;;;4979867;28;20089;-90
2021/04/01 07:10:50;;;;;;;18.88;10.88;;;13.40;47.80;;;;;;4979756;28;20045;-90
2021/04/01 07:13:22;;;;;;;13.02;10.43;;;13.60;47.70;;;;;;4979453;28;20038;-89
2021/04/01 07:15:52;;;;;;;15.35;11.75;;;13.80;47.50;;;;;;4978217;28;20067;-89
2021/04/01 07:23:59;;;;;;;16.92;12.38;;;14.20;46.70;;;;;;4996510;28;20053;-90
2021/04/01 07:52:09;;;;;;;15.65;10.13;;;15.30;44.80;;;;;;5131158;27;1075230;-91
2021/04/01 07:54:12;;;;;;;16.40;11.10;;;15.40;44.80;;;;;;5127163;27;20036;-90
2021/04/01 07:56:46;;;;;;;13.45;9.93;;;15.50;44.50;;;;;;5132295;28;20045;-89
2021/04/01 08:04:32;;;;;;;13.63;10.38;;;15.60;43.70;;;;;;5143905;27;20038;-90
2021/04/01 08:07:16;;;;;;;15.73;11.15;;;15.60;44.00;;;;;;5130752;28;20379;-89
2021/04/01 08:09:47;;;;;;;10.90;9.50;;;15.70;43.90;;;;;;5103800;28;20088;-90
2021/04/01 08:12:23;;;;;;;13.00;9.32;;;15.80;44.20;;;;;;5110443;28;20028;-90
2021/04/01 08:15:02;;;;;;;18.00;9.45;;;15.90;44.10;;;;;;5130043;27;20058;-92
2021/04/01 08:17:37;;;;;;;13.25;9.93;;;16.00;43.90;;;;;;5121051;28;20027;-91
2021/04/01 08:20:03;;;;;;;14.32;9.80;;;16.20;43.70;;;;;;5125912;28;20107;-91
2021/04/01 08:22:31;;;;;;;13.25;8.75;;;16.20;43.50;;;;;;5128782;28;20027;-92
2021/04/01 08:25:07;;;;;;;10.93;9.50;;;16.30;43.40;;;;;;5128085;28;20028;-90
2021/04/01 08:27:55;;;;;;;12.25;8.80;;;16.30;43.40;;;;;;5135784;28;20020;-92
2021/04/01 08:35:39;;;;;;;11.90;9.50;;;16.70;43.20;;;;;;5112461;28;20054;-90
2021/04/01 08:38:41;;;;;;;13.77;9.40;;;16.80;43.10;;;;;;5108767;28;20047;-91
2021/04/01 08:41:16;;;;;;;10.52;7.95;;;16.80;42.60;;;;;;5092531;28;20443;-91
2021/04/01 08:44:00;;;;;;;14.48;9.70;;;16.80;42.80;;;;;;5101364;28;20028;-92
2021/04/01 08:46:36;;;;;;;13.32;7.90;;;16.90;42.70;;;;;;5105046;28;20028;-91
2021/04/01 08:49:32;;;;;;;12.70;8.80;;;17.00;42.70;;;;;;5117991;28;20031;-91
2021/04/01 08:59:56;;;;;;;16.30;8.48;;;17.40;42.10;;;;;;5020274;28;20072;-91
2021/04/01 09:02:42;;;;;;;11.48;8.52;;;17.60;41.90;;;;;;5006480;28;20042;-91
2021/04/01 09:05:51;;;;;;;11.63;9.70;;;17.60;41.80;;;;;;5102289;28;20118;-91
2021/04/01 09:08:24;;;;;;;11.65;8.57;;;17.70;41.50;;;;;;5095051;28;20440;-91
2021/04/01 09:11:07;;;;;;;;;;;;;;;;;;;;;
2021/04/01 09:17:23;;;;;;;;;;;;;;;;;;;;;
2021/04/01 09:19:49;;;;;;;11.27;8.70;;;17.60;42.10;;;;;;5115212;28;20118;-90
2021/04/01 09:22:35;;;;;;;12.55;8.60;;;17.50;42.20;;;;;;5096048;28;20024;-91
2021/04/01 09:25:10;;;;;;;11.25;9.02;;;17.40;42.40;;;;;;5095808;28;20111;-91
2021/04/01 09:28:22;;;;;;;15.18;8.68;;;17.40;42.50;;;;;;5096818;28;20024;-90
2021/04/01 09:30:57;;;;;;;16.08;9.05;;;17.30;42.60;;;;;;5088305;28;20410;-91
2021/04/01 09:33:37;;;;;;;12.07;7.72;;;17.40;42.60;;;;;;5095019;28;20042;-92
2021/04/01 09:36:19;;;;;;;12.23;7.72;;;17.40;42.70;;;;;;5095770;28;20036;-91
2021/04/01 09:39:35;;;;;;;;;;;;;;;;;;;;;
2021/04/01 09:42:16;;;;;;;19.98;8.93;;;17.70;42.40;;;;;;5075447;28;20033;-92
2021/04/01 09:45:11;;;;;;;10.85;8.55;;;17.90;42.20;;;;;;5074904;28;20418;-90
2021/04/01 09:47:55;;;;;;;9.05;6.95;;;17.80;41.90;;;;;;5088577;28;20035;-91
2021/04/01 09:50:31;;;;;;;9.25;7.03;;;17.80;42.20;;;;;;5094358;28;20059;-91
2021/04/01 09:53:33;;;;;;;13.40;7.00;;;17.80;42.20;;;;;;5090062;28;20056;-92
2021/04/01 10:00:07;;;;;;;;;;;;;;;;;;;;;
2021/04/01 10:02:35;;;;;;;9.38;7.43;;;18.00;42.10;;;;;;5087519;28;20406;-90
2021/04/01 10:05:38;;;;;;;10.43;7.30;;;18.10;42.00;;;;;;5099596;28;20028;-89
2021/04/01 10:08:51;;;;;;;;;;;;;;;;;;;;;
2021/04/01 10:12:21;;;;;;;;;;;;;;;;;;;;;
2021/04/01 10:17:27;;;;;;;8.63;7.72;;;18.20;41.80;;;;;;5025037;28;20046;-91
2021/04/01 10:20:19;;;;;;;8.23;6.80;;;18.10;41.40;;;;;;4997428;28;20019;-90
2021/04/01 10:26:09;;;;;;;19.67;6.97;;;18.00;41.80;;;;;;5018455;28;20037;-89
2021/04/01 10:43:07;;;;;;;13.23;8.10;;;17.90;42.40;;;;;;4905716;29;20020;-89
2021/04/01 11:07:35;;;;;;;7.20;5.88;;;18.10;42.10;;;;;;4707560;30;20092;-92
2021/04/01 12:16:12;;;;;;;;;;;;;;;;;;;;;
2021/04/01 12:36:42;;;;;;;8.82;5.53;;;20.10;39.30;;;;;;4906324;29;20061;-93
2021/04/01 17:38:57;;;;;;;;;;;;;;;;;;;;;
2021/04/01 17:41:26;;;;;;;42.85;28.75;;;14.50;46.70;;;;;;4937194;29;20056;-94
2021/04/01 17:44:58;;;;;;;48.15;29.50;;;14.40;47.00;;;;;;4906739;29;20024;-96
2021/04/01 17:48:13;;;;;;;51.33;27.65;;;14.40;47.20;;;;;;4904161;29;20044;-96
2021/04/01 20:21:33;;;;;;;18.35;11.20;;;12.00;54.10;;;;;;992825;23;20331;-94
2021/04/01 20:28:24;;;;;;;;;;;;;;;;;;;;;
2021/04/01 20:31:18;;;;;;;16.70;11.48;;;11.90;54.40;;;;;;4897002;29;20025;-96
2021/04/01 20:34:05;;;;;;;18.38;11.48;;;11.70;54.40;;;;;;4882558;29;20044;-96
2021/04/01 20:39:44;;;;;;;;;;;;;;;;;;;;;
2021/04/01 20:42:58;;;;;;;;;;;;;;;;;;;;;
2021/04/01 23:09:38;;;;;;;13.45;9.93;;;10.40;54.50;;;;;;4842477;29;20026;-95
2021/04/01 23:13:37;;;;;;;;;;;;;;;;;;;;;
2021/04/01 23:16:16;;;;;;;;;;;;;;;;;;;;;
2021/04/01 23:19:23;;;;;;;;;;;;;;;;;;;;;
2021/04/01 23:22:32;;;;;;;17.50;10.80;;;10.20;54.60;;;;;;4938356;23;20080;-95
2021/04/01 23:50:43;;;;;;;18.52;12.23;;;9.70;56.00;;;;;;4919359;29;20061;-96
2021/04/01 23:53:41;;;;;;;20.92;12.52;;;9.70;55.60;;;;;;4830941;29;20041;-95
2021/04/01 23:56:55;;;;;;;24.42;13.55;;;9.60;55.60;;;;;;4875582;29;20032;-96
2021/04/01 23:59:40;;;;;;;24.00;13.60;;;9.60;55.70;;;;;;5025683;23;20060;-94
